createdAt,value
2022-11-24T10:20:30.454Z,98441.53
2022-11-24T10:23:44.518Z,98430.00
2022-11-24T10:26:39.913Z,98444.31
2022-11-24T10:29:22.920Z,98436.38
2022-11-24T10:31:53.807Z,98439.63
2022-11-24T10:34:32.481Z,98432.38
2022-11-24T10:37:06.062Z,98434.34
2022-11-24T10:39:41.053Z,98436.97
2022-11-24T10:42:30.612Z,98436.97
2022-11-24T10:45:16.569Z,98436.00
2022-11-24T10:47:44.552Z,98429.28
2022-11-24T10:50:35.859Z,98429.66
2022-11-24T10:53:07.165Z,98428.09
2022-11-24T10:55:55.874Z,98425.72
2022-11-24T10:58:37.054Z,98430.66
2022-11-24T11:01:13.577Z,98426.72
2022-11-24T11:03:54.954Z,98433.94
2022-11-24T11:06:24.804Z,98441.59
2022-11-24T11:09:13.891Z,98443.16
2022-11-24T11:11:41.774Z,98444.00
2022-11-24T11:14:11.217Z,98446.63
2022-11-24T11:16:39.060Z,98452.47
2022-11-24T11:19:56.852Z,98453.63
2022-11-24T11:22:35.773Z,98458.28
2022-11-24T11:25:07.585Z,98454.91
2022-11-24T11:27:34.734Z,98460.81
2022-11-24T11:35:51.369Z,98465.81
2022-11-24T11:38:18.833Z,98471.94
2022-11-24T11:40:49.942Z,98461.25
2022-11-24T11:43:28.737Z,98465.66
2022-11-24T11:46:09.416Z,98467.81
2022-11-24T11:48:43.341Z,98473.19
2022-11-24T11:51:25.908Z,98482.22
2022-11-24T11:54:07.516Z,98476.75
2022-11-24T11:56:40.962Z,98482.41
2022-11-24T11:59:36.748Z,98484.94
2022-11-24T12:02:03.323Z,98486.47
2022-11-24T12:04:47.977Z,98483.69
2022-11-24T12:07:33.046Z,98484.19
2022-11-24T12:10:32.993Z,98488.41
2022-11-24T12:13:20.093Z,98488.03
2022-11-24T12:15:59.067Z,98484.53
2022-11-24T12:18:57.221Z,98485.72
2022-11-24T12:21:27.594Z,98501.94
2022-11-24T12:24:26.507Z,98491.56
2022-11-24T12:26:57.241Z,98496.66
2022-11-24T12:29:24.178Z,98502.81
2022-11-24T12:32:26.086Z,98502.31
2022-11-24T12:34:55.800Z,98500.81
2022-11-24T12:37:40.404Z,98500.78
2022-11-24T12:40:17.993Z,98504.22
2022-11-24T12:42:50.971Z,98499.81
2022-11-24T12:45:27.333Z,98496.28
2022-11-24T12:48:03.859Z,98494.34
2022-11-24T12:50:37.249Z,98497.16
2022-11-24T12:53:24.989Z,98499.66
2022-11-24T12:55:52.993Z,98505.56
2022-11-24T12:58:29.691Z,98506.56
2022-11-24T13:01:36.739Z,98513.09
2022-11-24T13:04:31.264Z,98518.38
2022-11-24T13:07:04.393Z,98512.66
2022-11-24T13:09:31.162Z,98514.75
2022-11-24T13:12:16.298Z,98516.69
2022-11-24T13:14:45.123Z,98518.38
2022-11-24T13:17:42.000Z,98515.28
2022-11-24T13:20:25.516Z,98526.69
2022-11-24T13:22:55.174Z,98534.72
2022-11-24T13:25:29.248Z,98537.44
2022-11-24T13:27:59.667Z,98537.84
2022-11-24T13:30:38.326Z,98530.81
2022-11-24T13:33:16.245Z,98535.72
2022-11-24T13:36:01.805Z,98552.53
2022-11-24T13:38:46.412Z,98541.78
2022-11-24T13:41:59.037Z,98548.81
2022-11-24T13:44:25.718Z,98552.69
2022-11-24T13:47:33.754Z,98552.69
2022-11-24T13:50:01.684Z,98557.38
2022-11-24T13:52:40.451Z,98554.16
2022-11-24T13:55:12.889Z,98557.19
2022-11-24T13:57:40.905Z,98554.88
2022-11-24T14:00:23.920Z,98563.44
2022-11-24T14:02:59.013Z,98566.09
2022-11-24T14:05:35.679Z,98566.47
2022-11-24T14:08:04.954Z,98569.38
2022-11-24T14:10:36.217Z,98575.75
2022-11-24T14:13:21.235Z,98580.28
2022-11-24T14:16:09.641Z,98582.22
2022-11-24T14:18:38.779Z,98590.13
2022-11-24T14:21:24.004Z,98582.66
2022-11-24T14:24:00.139Z,98586.03
2022-11-24T14:26:35.466Z,98588.53
2022-11-24T14:29:20.467Z,98586.03
2022-11-24T14:31:58.206Z,98588.44
2022-11-24T14:34:28.032Z,98586.72
2022-11-24T14:36:56.400Z,98591.72
2022-11-24T14:39:25.398Z,98603.31
2022-11-24T14:42:05.773Z,98598.63
2022-11-24T14:44:45.407Z,98601.78
2022-11-24T14:47:32.867Z,98600.94
2022-11-24T14:50:16.249Z,98608.72
2022-11-24T14:52:54.394Z,98610.78
2022-11-24T14:55:30.149Z,98619.53
2022-11-24T14:57:58.157Z,98623.16
2022-11-24T15:00:24.803Z,98626.75
2022-11-24T15:03:07.401Z,98626.91
2022-11-24T15:05:52.035Z,98634.94
2022-11-24T15:08:18.658Z,98630.34
2022-11-24T15:10:45.768Z,98634.69
2022-11-24T15:13:21.815Z,98633.84
2022-11-24T15:15:56.329Z,98630.34
2022-11-24T15:18:33.456Z,98644.41
2022-11-24T15:21:00.116Z,98645.00
2022-11-24T15:23:31.927Z,98642.75
2022-11-24T15:26:18.473Z,98648.38
2022-11-24T15:28:48.171Z,98648.28
2022-11-24T15:31:15.095Z,98650.81
2022-11-24T15:33:42.375Z,98650.81
2022-11-24T15:36:09.039Z,98647.31
2022-11-24T15:38:35.660Z,98657.53
2022-11-24T15:41:02.421Z,98659.69
2022-11-24T15:43:38.693Z,98657.53
2022-11-24T15:46:08.228Z,98654.19
2022-11-24T15:48:34.937Z,98659.69
2022-11-24T15:51:03.022Z,98657.66
2022-11-24T15:53:34.585Z,98666.88
2022-11-24T15:56:03.713Z,98666.19
2022-11-24T15:58:30.291Z,98664.72
2022-11-24T16:00:57.155Z,98680.34
2022-11-24T16:03:46.344Z,98672.78
2022-11-24T16:06:22.249Z,98676.50
2022-11-24T16:08:51.160Z,98675.75
2022-11-24T16:11:17.783Z,98679.34
2022-11-24T16:13:48.550Z,98686.09
2022-11-24T16:16:19.298Z,98684.63
2022-11-24T16:18:46.049Z,98685.94
2022-11-24T16:21:12.741Z,98683.69
2022-11-24T16:23:39.377Z,98685.34
2022-11-24T16:26:06.616Z,98685.59
2022-11-24T16:28:33.462Z,98689.91
2022-11-24T16:31:00.150Z,98688.09
2022-11-24T16:33:28.718Z,98695.44
2022-11-24T16:35:55.296Z,98685.22
2022-11-24T16:38:21.922Z,98696.59
2022-11-24T16:40:56.551Z,98681.97
2022-11-24T16:43:24.477Z,98700.44
2022-11-24T16:46:18.646Z,98703.34
2022-11-24T16:48:46.876Z,98705.97
2022-11-24T16:51:14.433Z,98704.28
2022-11-24T16:53:41.386Z,98714.09
2022-11-24T16:56:08.400Z,98713.16
2022-11-24T16:58:38.027Z,98720.13
2022-11-24T17:01:10.754Z,98715.28
2022-11-24T17:03:37.963Z,98724.16
2022-11-24T17:06:07.299Z,98723.44
2022-11-24T17:08:35.875Z,98721.75
2022-11-24T17:11:20.243Z,98728.22
2022-11-24T17:13:49.104Z,98733.50
2022-11-24T17:16:18.707Z,98737.06
2022-11-24T17:18:45.684Z,98730.00
2022-11-24T17:21:31.351Z,98733.69
2022-11-24T17:24:05.215Z,98737.31
2022-11-24T17:26:33.085Z,98735.38
2022-11-24T17:28:59.721Z,98736.00
2022-11-24T17:31:29.800Z,98736.13
2022-11-24T17:33:58.006Z,98735.88
2022-11-24T17:36:25.593Z,98731.59
2022-11-24T17:38:52.656Z,98737.72
2022-11-24T17:41:20.073Z,98738.50
2022-11-24T17:43:51.130Z,98740.22
2022-11-24T17:46:18.243Z,98745.25
2022-11-24T17:48:45.071Z,98753.19
2022-11-24T17:51:13.675Z,98754.13
2022-11-24T17:53:42.405Z,98749.44
2022-11-24T17:56:13.261Z,98751.13
2022-11-24T17:58:43.129Z,98756.56
2022-11-24T18:01:11.110Z,98759.41
2022-11-24T18:03:39.415Z,98759.41
2022-11-24T18:06:07.460Z,98770.16
2022-11-24T18:08:34.600Z,98762.00
2022-11-24T18:11:09.209Z,98762.34
2022-11-24T18:14:03.016Z,98768.56
2022-11-24T18:16:24.499Z,98769.88
2022-11-24T18:19:07.311Z,98770.09
2022-11-24T18:21:34.372Z,98769.34
